createdAt,value
2019-05-21T00:00:57.372Z,12.60
2019-05-21T00:03:28.674Z,12.60
2019-05-21T00:06:00.380Z,12.50
2019-05-21T00:08:31.894Z,12.50
2019-05-21T00:11:03.210Z,12.60
2019-05-21T00:13:34.573Z,12.60
2019-05-21T00:16:06.218Z,12.50
2019-05-21T00:18:37.434Z,12.60
2019-05-21T00:21:08.747Z,12.60
2019-05-21T00:23:40.010Z,12.70
2019-05-21T00:26:11.453Z,12.60
2019-05-21T00:28:40.678Z,12.60
2019-05-21T00:32:06.786Z,12.60
2019-05-21T00:35:45.782Z,12.60
2019-05-21T00:39:11.203Z,12.50
2019-05-21T00:42:02.439Z,12.40
2019-05-21T00:44:38.543Z,12.40
2019-05-21T00:47:12.470Z,12.40
2019-05-21T00:49:43.874Z,12.40
2019-05-21T00:52:15.191Z,12.30
2019-05-21T00:54:46.522Z,12.40
2019-05-21T00:57:18.142Z,12.30
2019-05-21T00:59:49.575Z,12.20
2019-05-21T01:02:21.248Z,12.10
2019-05-21T01:05:00.675Z,12.10
2019-05-21T01:07:25.459Z,12.10
2019-05-21T01:09:56.753Z,12.10
2019-05-21T01:12:28.026Z,12.10
2019-05-21T01:14:59.559Z,12.10
2019-05-21T01:17:31.195Z,12.10
2019-05-21T01:20:02.533Z,12.00
2019-05-21T01:22:33.783Z,11.90
2019-05-21T01:25:05.290Z,11.90
2019-05-21T01:27:36.611Z,11.80
2019-05-21T01:30:08.166Z,11.80
2019-05-21T01:32:39.905Z,11.80
2019-05-21T01:35:17.305Z,11.80
2019-05-21T01:37:44.766Z,11.80
2019-05-21T01:40:16.096Z,11.70
2019-05-21T01:42:47.306Z,11.70
2019-05-21T01:45:18.861Z,11.70
2019-05-21T01:47:50.149Z,11.70
2019-05-21T01:50:21.804Z,11.70
2019-05-21T01:52:53.109Z,11.60
2019-05-21T01:55:24.353Z,11.60
2019-05-21T01:57:56.116Z,11.70
2019-05-21T02:00:27.500Z,11.60
2019-05-21T02:02:58.888Z,11.60
2019-05-21T02:05:33.418Z,11.60
2019-05-21T02:08:03.829Z,11.60
2019-05-21T02:10:35.195Z,11.70
2019-05-21T02:13:06.785Z,11.70
2019-05-21T02:15:38.241Z,11.70
2019-05-21T02:18:09.703Z,11.70
2019-05-21T02:20:40.970Z,11.60
2019-05-21T02:23:12.351Z,11.60
2019-05-21T02:25:44.252Z,11.60
2019-05-21T02:28:15.707Z,11.50
2019-05-21T02:30:47.046Z,11.50
2019-05-21T02:33:19.098Z,11.50
2019-05-21T02:35:54.612Z,11.50
2019-05-21T02:38:23.547Z,11.50
2019-05-21T02:40:54.834Z,11.50
2019-05-21T02:43:26.235Z,11.50
2019-05-21T02:45:57.629Z,11.50
2019-05-21T02:48:29.024Z,11.50
2019-05-21T02:51:00.345Z,11.60
2019-05-21T02:53:34.335Z,11.60
2019-05-21T02:56:04.685Z,11.50
2019-05-21T02:58:36.020Z,11.50
2019-05-21T03:01:35.333Z,11.50
2019-05-21T03:04:06.761Z,11.60
2019-05-21T03:06:38.441Z,11.50
2019-05-21T03:09:10.165Z,11.50
2019-05-21T03:11:41.541Z,11.50
2019-05-21T03:14:12.919Z,11.50
2019-05-21T03:16:44.371Z,11.50
2019-05-21T03:19:16.631Z,11.50
2019-05-21T03:21:48.975Z,11.50
2019-05-21T03:24:20.214Z,11.40
2019-05-21T03:26:51.537Z,11.50
2019-05-21T03:29:22.765Z,11.50
2019-05-21T03:31:54.440Z,11.50
2019-05-21T03:34:25.778Z,11.40
2019-05-21T03:36:57.215Z,11.50
2019-05-21T03:39:28.686Z,11.50
2019-05-21T03:42:00.045Z,11.50
2019-05-21T03:44:31.357Z,11.40
2019-05-21T03:47:03.060Z,11.50
2019-05-21T03:49:34.378Z,11.50
2019-05-21T03:52:05.791Z,11.40
2019-05-21T03:54:37.170Z,11.40
2019-05-21T03:57:08.486Z,11.40
2019-05-21T03:59:39.870Z,11.40
2019-05-21T04:02:11.269Z,11.50
2019-05-21T04:04:42.683Z,11.50
2019-05-21T04:07:14.410Z,11.50
2019-05-21T04:09:46.223Z,11.50
2019-05-21T04:12:17.521Z,11.50
2019-05-21T04:14:52.779Z,11.50
2019-05-21T04:17:36.907Z,11.50
2019-05-21T04:20:09.418Z,11.40
2019-05-21T04:22:52.755Z,11.50
2019-05-21T04:25:25.201Z,11.50
2019-05-21T04:27:56.759Z,11.40
2019-05-21T04:30:28.117Z,11.50
2019-05-21T04:32:59.503Z,11.50
2019-05-21T04:35:31.199Z,11.40
2019-05-21T04:38:02.996Z,11.40
2019-05-21T04:40:34.381Z,11.40
2019-05-21T04:43:05.738Z,11.40
2019-05-21T04:45:37.154Z,11.50
2019-05-21T04:48:08.418Z,11.40
2019-05-21T04:50:39.855Z,11.40
2019-05-21T04:53:11.222Z,11.50
2019-05-21T04:55:42.506Z,11.50
2019-05-21T04:58:13.808Z,11.50
2019-05-21T05:00:45.442Z,11.50
2019-05-21T05:03:17.098Z,11.50
2019-05-21T05:05:48.415Z,11.40
2019-05-21T05:08:19.735Z,11.40
2019-05-21T05:10:51.004Z,11.50
2019-05-21T05:13:22.213Z,11.50
2019-05-21T05:15:53.325Z,11.50
2019-05-21T05:18:24.522Z,11.40
2019-05-21T05:20:56.190Z,11.50
2019-05-21T05:23:27.464Z,11.50
2019-05-21T05:25:58.683Z,11.50
2019-05-21T05:28:29.890Z,11.50
2019-05-21T05:31:01.542Z,11.50
2019-05-21T05:33:32.819Z,11.50
2019-05-21T05:36:04.094Z,11.40
2019-05-21T05:38:35.373Z,11.40
2019-05-21T05:41:06.854Z,11.40
2019-05-21T05:43:37.967Z,11.40
2019-05-21T05:46:09.138Z,11.50
2019-05-21T05:48:48.666Z,11.50
2019-05-21T05:51:20.039Z,11.40
2019-05-21T05:53:57.888Z,11.40
2019-05-21T05:56:30.177Z,11.30
2019-05-21T05:59:01.544Z,11.30
2019-05-21T06:01:34.222Z,11.30
2019-05-21T06:04:05.703Z,11.30
2019-05-21T06:06:37.340Z,11.30
2019-05-21T06:09:08.986Z,11.30
2019-05-21T06:11:40.235Z,11.30
2019-05-21T06:14:11.473Z,11.40
2019-05-21T06:16:43.098Z,11.40
2019-05-21T06:19:14.441Z,11.40
2019-05-21T06:21:45.560Z,11.40
2019-05-21T06:24:16.845Z,11.40
2019-05-21T06:26:48.010Z,11.40
2019-05-21T06:29:19.326Z,11.40
2019-05-21T06:31:50.447Z,11.50
2019-05-21T06:34:21.770Z,11.50
2019-05-21T06:36:53.031Z,11.50
2019-05-21T06:39:24.368Z,11.50
2019-05-21T06:41:56.010Z,11.50
2019-05-21T06:44:27.305Z,11.50
2019-05-21T06:46:58.534Z,11.50
2019-05-21T06:49:29.726Z,11.60
2019-05-21T06:52:00.983Z,11.50
2019-05-21T06:54:32.241Z,11.50
2019-05-21T06:57:03.897Z,11.60
2019-05-21T06:59:35.261Z,11.60
2019-05-21T07:02:06.630Z,11.60
2019-05-21T07:04:37.999Z,11.50
2019-05-21T07:07:09.224Z,11.60
2019-05-21T07:09:40.861Z,11.60
2019-05-21T07:12:12.418Z,11.60
2019-05-21T07:14:43.914Z,11.60
2019-05-21T07:17:15.202Z,11.50
2019-05-21T07:19:46.489Z,11.50
2019-05-21T07:22:17.859Z,11.50
2019-05-21T07:24:48.999Z,11.60
2019-05-21T07:27:20.355Z,11.60
2019-05-21T07:29:51.626Z,11.60
2019-05-21T07:32:22.866Z,11.60
2019-05-21T07:34:54.151Z,11.50
2019-05-21T07:37:25.339Z,11.50
2019-05-21T07:39:57.034Z,11.50
2019-05-21T07:42:28.255Z,11.50
2019-05-21T07:45:00.265Z,11.60
2019-05-21T07:47:31.512Z,11.50
2019-05-21T07:50:03.268Z,11.50
2019-05-21T07:52:34.653Z,11.50
2019-05-21T07:55:06.579Z,11.50
2019-05-21T07:57:37.841Z,11.50
2019-05-21T08:00:11.586Z,11.50
2019-05-21T08:02:42.769Z,11.50
2019-05-21T08:05:14.229Z,11.50
2019-05-21T08:07:45.493Z,11.50
2019-05-21T08:10:17.270Z,11.50
2019-05-21T08:12:48.551Z,11.40
2019-05-21T08:15:19.895Z,11.50
2019-05-21T08:17:51.105Z,11.50
2019-05-21T08:20:22.804Z,11.60
2019-05-21T08:22:53.970Z,11.50
2019-05-21T08:25:25.632Z,11.50
2019-05-21T08:27:57.132Z,11.40
2019-05-21T08:30:28.496Z,11.40
2019-05-21T08:32:59.593Z,11.40
2019-05-21T08:35:31.274Z,11.40
2019-05-21T08:38:06.472Z,11.40
2019-05-21T08:40:35.952Z,11.50
2019-05-21T08:43:06.465Z,11.50
2019-05-21T08:45:55.526Z,11.50
2019-05-21T08:48:27.331Z,11.50
2019-05-21T08:50:58.655Z,11.50
2019-05-21T08:53:29.921Z,11.60
2019-05-21T08:56:01.207Z,11.60
2019-05-21T08:58:32.473Z,11.70
2019-05-21T09:01:03.993Z,11.70
2019-05-21T09:03:35.975Z,11.80
2019-05-21T09:06:07.402Z,11.70
2019-05-21T09:08:39.087Z,11.70
2019-05-21T09:11:10.379Z,11.60
2019-05-21T09:13:41.688Z,11.50
2019-05-21T09:16:13.619Z,11.50
2019-05-21T09:18:44.973Z,11.50
2019-05-21T09:21:16.245Z,11.40
2019-05-21T09:23:47.668Z,11.50
2019-05-21T09:26:19.037Z,11.60
2019-05-21T09:28:50.336Z,11.40
2019-05-21T09:31:21.648Z,11.40
2019-05-21T09:33:52.866Z,11.40
2019-05-21T09:36:25.330Z,11.40
2019-05-21T09:38:57.153Z,11.50
2019-05-21T09:41:28.485Z,11.50
2019-05-21T09:44:00.043Z,11.60
2019-05-21T09:46:31.419Z,11.70
2019-05-21T09:49:02.794Z,11.70
2019-05-21T09:51:34.025Z,11.80
2019-05-21T09:54:05.505Z,11.70
2019-05-21T09:56:37.174Z,11.80
2019-05-21T09:59:26.416Z,11.90
2019-05-21T10:02:01.259Z,11.80
2019-05-21T10:04:33.355Z,11.80
2019-05-21T10:07:04.822Z,11.70
2019-05-21T10:09:36.158Z,11.80
2019-05-21T10:12:07.962Z,11.70
2019-05-21T10:14:39.582Z,11.70
2019-05-21T10:17:10.793Z,11.70
2019-05-21T10:19:42.473Z,11.70
2019-05-21T10:22:13.929Z,11.70
2019-05-21T10:24:45.332Z,11.70
2019-05-21T10:27:16.982Z,11.80
2019-05-21T10:29:48.292Z,11.90
2019-05-21T10:32:19.586Z,11.90
2019-05-21T10:34:50.899Z,11.90
2019-05-21T10:37:22.487Z,11.90
2019-05-21T10:39:54.022Z,11.90
2019-05-21T10:42:25.315Z,11.90
2019-05-21T10:44:56.717Z,12.00
2019-05-21T10:47:28.096Z,12.00
2019-05-21T10:49:59.408Z,12.10
2019-05-21T10:52:30.914Z,12.20
2019-05-21T10:55:02.096Z,12.10
2019-05-21T10:57:33.396Z,12.00
2019-05-21T11:00:08.184Z,12.00
2019-05-21T11:02:51.324Z,12.00
2019-05-21T11:05:37.390Z,12.10
2019-05-21T11:08:25.529Z,12.10
2019-05-21T11:10:42.654Z,12.10
2019-05-21T11:13:14.008Z,12.10
2019-05-21T11:15:45.317Z,12.30
2019-05-21T11:18:16.725Z,12.30
2019-05-21T11:20:48.392Z,12.20
2019-05-21T11:23:19.641Z,12.30
2019-05-21T11:25:51.171Z,12.30
2019-05-21T11:28:22.518Z,12.30
2019-05-21T11:30:53.780Z,12.40
2019-05-21T11:33:25.398Z,12.50
2019-05-21T11:35:56.938Z,12.60
2019-05-21T11:38:39.530Z,12.70
2019-05-21T11:41:01.573Z,12.50
2019-05-21T11:43:32.851Z,12.50
2019-05-21T11:46:04.080Z,12.50
2019-05-21T11:48:35.326Z,12.70
2019-05-21T11:51:06.723Z,12.60
2019-05-21T11:53:37.934Z,12.50
2019-05-21T11:56:09.168Z,12.50
2019-05-21T11:58:40.451Z,12.30
2019-05-21T12:01:11.801Z,12.30
2019-05-21T12:03:43.237Z,12.20
2019-05-21T12:06:14.479Z,12.10
2019-05-21T12:08:56.222Z,12.10
2019-05-21T12:11:19.030Z,12.10
2019-05-21T12:13:50.281Z,12.10
2019-05-21T12:16:21.544Z,12.10
2019-05-21T12:18:52.828Z,12.10
2019-05-21T12:21:24.134Z,12.10
2019-05-21T12:23:55.256Z,12.10
2019-05-21T12:26:26.508Z,12.10
2019-05-21T12:28:58.046Z,12.10
2019-05-21T12:31:29.850Z,12.30
2019-05-21T12:34:01.370Z,12.30
2019-05-21T12:36:32.567Z,12.20
2019-05-21T12:39:13.728Z,12.10
2019-05-21T12:41:37.503Z,12.20
2019-05-21T12:44:08.852Z,12.20
2019-05-21T12:46:40.187Z,12.10
2019-05-21T12:49:11.447Z,12.10
2019-05-21T12:51:43.154Z,12.10
2019-05-21T12:54:14.436Z,12.00
2019-05-21T12:56:45.729Z,12.00
2019-05-21T12:59:16.924Z,12.00
2019-05-21T13:01:48.196Z,12.00
2019-05-21T13:04:19.609Z,12.20
2019-05-21T13:06:50.984Z,12.10
2019-05-21T13:09:32.246Z,12.00
2019-05-21T13:11:55.276Z,12.00
2019-05-21T13:14:26.656Z,12.10
2019-05-21T13:16:58.117Z,12.20
2019-05-21T13:19:29.504Z,12.20
2019-05-21T13:22:00.851Z,12.10
2019-05-21T13:24:32.501Z,12.20
2019-05-21T13:27:03.862Z,12.10
2019-05-21T13:29:35.510Z,12.10
2019-05-21T13:32:07.006Z,12.20
2019-05-21T13:34:38.381Z,12.20
2019-05-21T13:37:09.709Z,12.20
2019-05-21T13:39:50.225Z,12.20
2019-05-21T13:42:14.478Z,12.20
2019-05-21T13:44:45.682Z,12.30
2019-05-21T13:47:16.956Z,12.30
2019-05-21T13:49:48.248Z,12.20
2019-05-21T13:52:19.706Z,12.20
2019-05-21T13:54:51.052Z,12.20
2019-05-21T13:57:22.376Z,12.20
2019-05-21T13:59:53.629Z,12.20
2019-05-21T14:02:24.983Z,12.10
2019-05-21T14:04:57.761Z,12.10
2019-05-21T14:07:29.683Z,12.10
2019-05-21T14:10:14.338Z,12.20
2019-05-21T14:12:35.752Z,12.20
2019-05-21T14:15:07.728Z,12.20
2019-05-21T14:17:39.302Z,12.20
2019-05-21T14:20:11.347Z,12.30
2019-05-21T14:22:42.549Z,12.40
2019-05-21T14:25:13.904Z,12.40
2019-05-21T14:27:45.478Z,12.40
2019-05-21T14:30:17.381Z,12.40
2019-05-21T14:32:48.789Z,12.50
2019-05-21T14:35:20.060Z,12.60
2019-05-21T14:37:51.664Z,12.50
2019-05-21T14:40:31.793Z,12.40
2019-05-21T14:43:00.414Z,12.50
2019-05-21T14:45:34.179Z,12.60
2019-05-21T14:48:05.232Z,12.60
2019-05-21T14:50:36.584Z,12.60
2019-05-21T14:53:08.247Z,12.60
2019-05-21T14:55:39.965Z,12.50
2019-05-21T14:58:11.134Z,12.50
2019-05-21T15:00:42.517Z,12.60
2019-05-21T15:03:24.774Z,12.50
2019-05-21T15:05:47.066Z,12.60
2019-05-21T15:08:18.165Z,12.60
2019-05-21T15:10:49.860Z,12.50
2019-05-21T15:13:21.080Z,12.60
2019-05-21T15:15:52.618Z,12.70
2019-05-21T15:18:23.893Z,12.70
2019-05-21T15:21:03.196Z,12.80
2019-05-21T15:23:34.354Z,12.80
2019-05-21T15:26:05.783Z,12.80
2019-05-21T15:28:36.978Z,12.70
2019-05-21T15:31:08.684Z,12.70
2019-05-21T15:33:39.849Z,12.60
2019-05-21T15:36:11.087Z,12.60
2019-05-21T15:38:50.313Z,12.60
2019-05-21T15:41:15.119Z,12.60
2019-05-21T15:43:46.384Z,12.50
2019-05-21T15:46:17.730Z,12.50
2019-05-21T15:48:49.063Z,12.50
2019-05-21T15:51:20.507Z,12.50
2019-05-21T15:53:51.720Z,12.50
2019-05-21T15:56:22.915Z,12.50
2019-05-21T15:58:54.235Z,12.60
2019-05-21T16:01:25.766Z,12.60
2019-05-21T16:03:57.010Z,12.60
2019-05-21T16:06:28.379Z,12.60
2019-05-21T16:08:59.580Z,12.60
2019-05-21T16:11:30.773Z,12.60
2019-05-21T16:14:02.030Z,12.50
2019-05-21T16:16:33.378Z,12.60
2019-05-21T16:19:04.655Z,12.50
2019-05-21T16:21:36.224Z,12.50
2019-05-21T16:24:07.522Z,12.60
2019-05-21T16:26:39.516Z,12.50
2019-05-21T16:29:11.372Z,12.40
2019-05-21T16:31:42.687Z,12.40
2019-05-21T16:34:14.531Z,12.50
2019-05-21T16:36:45.985Z,12.50
2019-05-21T16:39:19.327Z,12.40
2019-05-21T16:41:50.594Z,12.50
2019-05-21T16:44:22.140Z,12.50
2019-05-21T16:46:53.411Z,12.60
2019-05-21T16:49:24.675Z,12.60
2019-05-21T16:51:56.398Z,12.70
2019-05-21T16:54:27.761Z,12.70
2019-05-21T16:56:58.992Z,12.70
2019-05-21T16:59:30.286Z,12.60
2019-05-21T17:02:01.654Z,12.60
2019-05-21T17:04:33.401Z,12.60
2019-05-21T17:07:04.897Z,12.70
2019-05-21T17:09:36.215Z,12.70
2019-05-21T17:12:08.012Z,12.70
2019-05-21T17:14:39.687Z,12.80
2019-05-21T17:17:11.123Z,12.80
2019-05-21T17:19:42.583Z,12.80
2019-05-21T17:22:13.969Z,12.80
2019-05-21T17:24:45.810Z,12.80
2019-05-21T17:27:17.246Z,12.60
2019-05-21T17:29:48.995Z,12.50
2019-05-21T17:32:20.580Z,12.50
2019-05-21T17:34:52.345Z,12.40
2019-05-21T17:37:23.748Z,12.40
2019-05-21T17:39:55.050Z,12.40
2019-05-21T17:42:26.480Z,12.30
2019-05-21T17:44:58.369Z,12.40
2019-05-21T17:47:29.828Z,12.40
2019-05-21T17:50:01.222Z,12.50
2019-05-21T17:52:32.736Z,12.50
2019-05-21T17:55:04.362Z,12.40
2019-05-21T17:57:35.818Z,12.40
2019-05-21T18:00:09.001Z,12.40
2019-05-21T18:02:40.917Z,12.50
2019-05-21T18:05:13.004Z,12.50
2019-05-21T18:07:45.304Z,12.40
2019-05-21T18:10:18.877Z,12.40
2019-05-21T18:12:50.748Z,12.50
2019-05-21T18:15:22.422Z,12.50
2019-05-21T18:17:53.822Z,12.40
2019-05-21T18:20:25.226Z,12.40
2019-05-21T18:22:56.479Z,12.40
2019-05-21T18:25:27.749Z,12.50
2019-05-21T18:27:59.307Z,12.50
2019-05-21T18:30:30.740Z,12.50
2019-05-21T18:33:10.220Z,12.50
2019-05-21T18:35:45.217Z,12.40
2019-05-21T18:38:15.322Z,12.40
2019-05-21T18:40:46.999Z,12.50
2019-05-21T18:43:19.171Z,12.60
2019-05-21T18:45:50.935Z,12.60
2019-05-21T18:48:22.124Z,12.60
2019-05-21T18:50:53.665Z,12.60
2019-05-21T18:53:24.952Z,12.70
2019-05-21T18:55:56.483Z,12.60
2019-05-21T18:58:28.616Z,12.60
2019-05-21T19:00:59.942Z,12.60
2019-05-21T19:03:31.230Z,12.50
2019-05-21T19:06:02.556Z,12.40
2019-05-21T19:08:34.202Z,12.40
2019-05-21T19:11:05.523Z,12.40
2019-05-21T19:13:36.925Z,12.50
2019-05-21T19:16:08.695Z,12.40
2019-05-21T19:18:39.998Z,12.40
2019-05-21T19:21:11.634Z,12.30
2019-05-21T19:23:42.888Z,12.30
2019-05-21T19:26:14.436Z,12.30
2019-05-21T19:28:46.177Z,12.40
2019-05-21T19:31:17.379Z,12.40
2019-05-21T19:33:48.952Z,12.40
2019-05-21T19:36:20.141Z,12.50
2019-05-21T19:38:51.543Z,12.50
2019-05-21T19:41:22.813Z,12.40
2019-05-21T19:43:54.113Z,12.40
2019-05-21T19:46:25.508Z,12.40
2019-05-21T19:48:57.014Z,12.40
2019-05-21T19:51:28.268Z,12.30
2019-05-21T19:53:59.544Z,12.30
2019-05-21T19:56:31.013Z,12.30
2019-05-21T19:59:02.469Z,12.20
2019-05-21T20:01:34.028Z,12.20
2019-05-21T20:04:06.835Z,12.20
2019-05-21T20:06:38.520Z,12.30
2019-05-21T20:09:14.805Z,12.20
2019-05-21T20:11:46.259Z,12.20
2019-05-21T20:14:17.683Z,12.30
2019-05-21T20:16:49.198Z,12.30
2019-05-21T20:19:23.093Z,12.30
2019-05-21T20:21:55.069Z,12.40
2019-05-21T20:24:26.652Z,12.40
2019-05-21T20:26:58.994Z,12.40
2019-05-21T20:29:31.245Z,12.30
2019-05-21T20:32:02.875Z,12.20
2019-05-21T20:34:34.082Z,12.20
2019-05-21T20:37:07.843Z,12.20
2019-05-21T20:39:41.576Z,12.20
2019-05-21T20:42:17.671Z,12.10
2019-05-21T20:44:48.080Z,12.10
2019-05-21T20:47:19.579Z,12.00
2019-05-21T20:49:51.090Z,12.00
2019-05-21T20:52:22.693Z,12.00
2019-05-21T20:54:56.489Z,12.10
2019-05-21T20:57:29.269Z,12.20
2019-05-21T21:00:01.082Z,12.40
2019-05-21T21:02:33.651Z,12.40
2019-05-21T21:05:06.383Z,12.40
2019-05-21T21:07:39.103Z,12.30
2019-05-21T21:10:12.299Z,12.20
2019-05-21T21:12:44.721Z,12.20
2019-05-21T21:15:17.989Z,12.10
2019-05-21T21:17:49.568Z,12.20
2019-05-21T21:20:21.025Z,12.40
2019-05-21T21:22:52.219Z,12.60
2019-05-21T21:25:24.967Z,12.60
2019-05-21T21:27:57.060Z,12.50
2019-05-21T21:30:29.262Z,12.40
2019-05-21T21:33:01.007Z,12.40
2019-05-21T21:35:32.604Z,12.50
2019-05-21T21:38:08.028Z,12.70
2019-05-21T21:40:39.977Z,12.60
2019-05-21T21:43:11.571Z,12.50
2019-05-21T21:45:43.399Z,12.50
2019-05-21T21:48:16.251Z,12.30
2019-05-21T21:50:48.768Z,12.40
2019-05-21T21:53:21.045Z,12.40
2019-05-21T21:55:53.858Z,12.40
2019-05-21T21:58:25.467Z,12.30
2019-05-21T22:01:25.732Z,12.30
2019-05-21T22:04:02.574Z,12.30
2019-05-21T22:06:36.552Z,12.10
2019-05-21T22:09:14.288Z,12.10
2019-05-21T22:11:47.351Z,12.20
2019-05-21T22:14:19.172Z,12.10
2019-05-21T22:16:51.912Z,12.20
2019-05-21T22:19:24.572Z,12.20
2019-05-21T22:21:56.468Z,12.10
2019-05-21T22:24:28.707Z,12.10
2019-05-21T22:27:00.251Z,12.10
2019-05-21T22:29:32.175Z,12.10
2019-05-21T22:32:04.455Z,12.10
2019-05-21T22:34:35.935Z,12.10
2019-05-21T22:37:09.022Z,12.10
2019-05-21T22:39:41.768Z,12.10
2019-05-21T22:42:13.138Z,12.10
2019-05-21T22:44:44.903Z,12.00
2019-05-21T22:47:16.351Z,12.00
2019-05-21T22:49:47.767Z,11.90
2019-05-21T22:52:18.940Z,11.80
2019-05-21T22:54:50.158Z,12.00
2019-05-21T22:57:21.504Z,12.00
2019-05-21T22:59:52.944Z,12.00
2019-05-21T23:02:28.701Z,12.00
2019-05-21T23:04:59.809Z,12.00
2019-05-21T23:07:31.255Z,11.90
2019-05-21T23:10:02.782Z,12.00
2019-05-21T23:12:34.637Z,11.90
2019-05-21T23:15:06.816Z,11.90
2019-05-21T23:17:38.219Z,11.80
2019-05-21T23:20:12.466Z,11.80
2019-05-21T23:22:47.417Z,11.80
2019-05-21T23:25:20.434Z,11.80
2019-05-21T23:27:52.233Z,11.90
2019-05-21T23:30:23.504Z,11.80
2019-05-21T23:32:55.579Z,11.80
2019-05-21T23:35:27.942Z,11.80
2019-05-21T23:38:01.286Z,11.80
2019-05-21T23:40:32.736Z,11.80
2019-05-21T23:43:04.000Z,11.80
2019-05-21T23:45:35.516Z,11.90
2019-05-21T23:48:11.220Z,11.90
2019-05-21T23:50:42.627Z,11.80
2019-05-21T23:53:14.226Z,11.80
2019-05-21T23:55:45.465Z,11.70
2019-05-21T23:58:17.897Z,11.80
